Time;durP1;ratioP1;P1;durP2;ratioP2;P2;SDS_P1;SDS_P2;PMS_P1;PMS_P2;Temp;Humidity;BMP_temperature;BMP_pressure;BME280_temperature;BME280_humidity;BME280_pressure;Samples;Min_cycle;Max_cycle;Signal;HPM_P1;HPM_P2
2022/08/28 00:01:35;;;;;;;11.10;3.38;;;;;;;17.55;100.00;101830.66;5279643;28;20042;-76
2022/08/28 00:04:05;;;;;;;9.25;2.35;;;;;;;17.54;100.00;101828.13;5281263;28;20012;-76
2022/08/28 00:06:36;;;;;;;5.10;2.47;;;;;;;17.52;100.00;101824.75;5280183;28;20031;-76
2022/08/28 00:09:06;;;;;;;12.55;2.47;;;;;;;17.52;100.00;101827.47;5266867;28;20020;-75
2022/08/28 00:11:38;;;;;;;10.55;2.30;;;;;;;17.49;100.00;101831.41;5268401;28;20024;-76
2022/08/28 00:14:10;;;;;;;8.52;2.15;;;;;;;17.48;100.00;101826.19;5286585;28;20020;-76
2022/08/28 00:16:41;;;;;;;6.10;2.63;;;;;;;17.46;100.00;101831.78;5284956;28;20408;-75
2022/08/28 00:19:11;;;;;;;5.45;2.42;;;;;;;17.46;100.00;101833.66;5277125;28;20024;-76
2022/08/28 00:21:42;;;;;;;10.43;2.22;;;;;;;17.45;100.00;101831.97;5251417;28;20028;-76
2022/08/28 00:24:13;;;;;;;9.98;2.60;;;;;;;17.43;100.00;101829.44;5266138;28;20035;-76
2022/08/28 00:29:33;;;;;;;8.90;2.47;;;;;;;17.39;100.00;101824.59;5284878;28;20496;-75
2022/08/28 00:32:04;;;;;;;7.72;2.35;;;;;;;17.38;100.00;101836.47;5276948;28;20024;-75
2022/08/28 00:34:34;;;;;;;8.02;2.20;;;;;;;17.36;100.00;101831.22;5286732;28;20448;-74
2022/08/28 00:37:05;;;;;;;10.25;2.53;;;;;;;17.33;100.00;101832.44;5287221;28;20489;-75
2022/08/28 00:39:36;;;;;;;11.38;2.65;;;;;;;17.31;100.00;101841.78;5287132;28;20081;-75
2022/08/28 00:42:06;;;;;;;8.50;2.20;;;;;;;17.29;100.00;101835.72;5274828;28;20023;-75
2022/08/28 00:44:37;;;;;;;6.32;2.30;;;;;;;17.28;100.00;101842.16;5260820;28;20385;-75
2022/08/28 00:47:08;;;;;;;7.70;2.60;;;;;;;17.26;100.00;101838.78;5279779;28;20026;-75
2022/08/28 00:49:48;;;;;;;9.50;2.95;;;;;;;17.23;100.00;101840.00;5273322;28;20023;-75
2022/08/28 00:52:22;;;;;;;10.32;2.90;;;;;;;17.22;100.00;101832.91;5273290;28;20035;-75
2022/08/28 00:54:58;;;;;;;9.95;2.65;;;;;;;17.19;100.00;101840.56;5286566;28;20020;-73
2022/08/28 00:57:33;;;;;;;10.35;2.67;;;;;;;17.16;100.00;101839.06;5273417;28;20036;-75
2022/08/28 01:00:09;;;;;;;10.82;2.53;;;;;;;17.15;100.00;101845.50;5272882;28;20035;-75
2022/08/28 01:02:39;;;;;;;6.80;2.17;;;;;;;17.13;100.00;101839.44;5248447;28;20032;-75
2022/08/28 01:05:10;;;;;;;10.15;2.78;;;;;;;17.11;100.00;101846.06;5280536;28;20030;-75
2022/08/28 01:07:42;;;;;;;9.93;2.50;;;;;;;17.09;100.00;101848.97;5278171;28;20036;-76
2022/08/28 01:10:23;;;;;;;15.27;3.20;;;;;;;17.09;100.00;101851.69;5270557;28;20164;-75
2022/08/28 01:12:55;;;;;;;7.97;2.67;;;;;;;17.05;100.00;101847.66;5287153;28;20016;-75
2022/08/28 01:15:47;;;;;;;11.35;3.03;;;;;;;17.03;100.00;101852.44;5259835;28;20035;-76
2022/08/28 01:18:19;;;;;;;11.23;3.15;;;;;;;17.01;100.00;101846.31;5270301;28;20059;-73
2022/08/28 01:21:13;;;;;;;12.38;2.67;;;;;;;16.98;100.00;101854.84;5278199;28;20031;-75
2022/08/28 01:24:00;;;;;;;15.27;3.00;;;;;;;16.98;100.00;101846.72;5275397;28;20031;-74
2022/08/28 01:26:31;;;;;;;8.15;3.05;;;;;;;16.95;100.00;101844.34;5268976;28;20047;-74
2022/08/28 01:29:12;;;;;;;10.20;2.85;;;;;;;16.94;100.00;101850.81;5282208;28;20120;-75
2022/08/28 01:31:43;;;;;;;7.07;2.88;;;;;;;16.92;100.00;101845.59;5265858;28;20036;-74
2022/08/28 01:34:14;;;;;;;10.60;2.47;;;;;;;16.90;100.00;101854.91;5279913;28;20046;-74
2022/08/28 01:36:47;;;;;;;12.88;2.70;;;;;;;16.87;100.00;101852.56;5278224;28;20020;-75
2022/08/28 01:39:22;;;;;;;11.90;3.00;;;;;;;16.86;100.00;101853.59;5265236;28;20027;-75
2022/08/28 01:41:54;;;;;;;10.48;3.10;;;;;;;16.82;100.00;101845.84;5258235;28;20046;-75
2022/08/28 01:44:26;;;;;;;6.90;2.80;;;;;;;16.80;100.00;101855.16;5272015;28;20024;-76
2022/08/28 01:46:58;;;;;;;7.95;2.65;;;;;;;16.78;100.00;101859.94;5286627;28;20024;-76
2022/08/28 01:49:29;;;;;;;11.15;3.33;;;;;;;16.80;100.00;101866.00;5286308;28;20533;-76
2022/08/28 01:52:00;;;;;;;11.45;3.30;;;;;;;16.75;100.00;101861.13;5268098;28;20033;-75
2022/08/28 01:54:31;;;;;;;10.38;3.38;;;;;;;16.71;100.00;101862.50;5285533;28;20024;-75
2022/08/28 01:57:02;;;;;;;13.07;3.70;;;;;;;16.70;100.00;101868.09;5254800;28;20527;-75
2022/08/28 01:59:40;;;;;;;14.35;3.85;;;;;;;16.73;100.00;101867.78;5286215;28;20034;-75
2022/08/28 02:02:12;;;;;;;11.32;3.53;;;;;;;16.68;100.00;101859.31;5282213;28;20095;-75
2022/08/28 02:04:43;;;;;;;10.25;3.45;;;;;;;16.65;100.00;101865.94;5276039;28;20028;-75
2022/08/28 02:07:15;;;;;;;14.70;3.85;;;;;;;16.61;100.00;101859.19;5254639;28;20023;-75
2022/08/28 02:09:46;;;;;;;10.32;4.13;;;;;;;16.59;100.00;101858.53;5286407;28;20035;-74
2022/08/28 02:12:17;;;;;;;12.20;3.33;;;;;;;16.55;100.00;101862.63;5247023;28;20032;-75
2022/08/28 02:14:47;;;;;;;15.35;3.20;;;;;;;16.52;100.00;101863.00;5265103;28;20036;-76
2022/08/28 02:17:18;;;;;;;10.02;3.83;;;;;;;16.49;100.00;101861.47;5277120;28;20039;-75
2022/08/28 02:19:50;;;;;;;10.73;3.95;;;;;;;16.48;100.00;101869.78;5274610;28;20539;-77
2022/08/28 02:22:21;;;;;;;12.68;4.07;;;;;;;16.46;100.00;101874.53;5279019;28;20076;-75
2022/08/28 02:24:51;;;;;;;13.68;3.83;;;;;;;16.44;100.00;101873.88;5286144;28;20027;-76
2022/08/28 02:27:22;;;;;;;11.27;3.95;;;;;;;16.42;100.00;101878.66;5270824;28;20020;-76
2022/08/28 02:29:54;;;;;;;12.27;4.63;;;;;;;16.39;100.00;101868.16;5289653;28;20047;-75
2022/08/28 02:32:25;;;;;;;11.05;4.15;;;;;;;16.38;100.00;101866.47;5290336;28;20087;-75
2022/08/28 02:34:56;;;;;;;11.73;3.90;;;;;;;16.37;100.00;101870.22;5282603;28;20032;-76
2022/08/28 02:37:26;;;;;;;14.20;4.88;;;;;;;16.36;100.00;101873.91;5264688;28;20030;-76
2022/08/28 02:39:57;;;;;;;17.40;4.50;;;;;;;16.35;100.00;101877.66;5276116;28;20038;-76
2022/08/28 02:42:28;;;;;;;17.88;5.03;;;;;;;16.31;100.00;101871.75;5274617;28;20028;-77
2022/08/28 02:44:58;;;;;;;24.25;4.80;;;;;;;16.28;100.00;101872.97;5268374;28;20382;-77
2022/08/28 02:47:29;;;;;;;14.98;3.83;;;;;;;16.26;100.00;101880.41;5271534;28;20485;-76
2022/08/28 02:49:59;;;;;;;12.02;4.22;;;;;;;16.24;100.00;101879.75;5289764;28;20032;-76
2022/08/28 02:52:30;;;;;;;15.10;3.95;;;;;;;16.22;100.00;101876.41;5289229;28;20019;-76
2022/08/28 02:55:00;;;;;;;19.90;4.30;;;;;;;16.20;100.00;101875.72;5289439;28;20408;-76
2022/08/28 02:57:31;;;;;;;15.15;4.65;;;;;;;16.19;100.00;101874.03;5284781;28;20028;-76
2022/08/28 03:00:06;;;;;;;14.27;4.45;;;;;;;16.18;100.00;101882.34;5268330;28;20026;-75
2022/08/28 03:02:38;;;;;;;13.60;4.95;;;;;;;16.18;100.00;101876.94;5268477;28;20027;-77
2022/08/28 03:05:09;;;;;;;18.80;4.40;;;;;;;16.18;100.00;101879.63;5267473;28;20023;-76
2022/08/28 03:07:40;;;;;;;15.50;4.50;;;;;;;16.15;100.00;101879.97;5268025;28;20389;-76
2022/08/28 03:10:11;;;;;;;12.75;3.85;;;;;;;16.13;100.00;101880.16;5266341;28;20474;-75
2022/08/28 03:12:42;;;;;;;15.95;4.40;;;;;;;16.11;100.00;101879.47;5268468;28;20038;-75
2022/08/28 03:15:12;;;;;;;15.88;4.95;;;;;;;16.11;100.00;101890.31;5267939;28;20032;-76
2022/08/28 03:17:44;;;;;;;14.85;4.63;;;;;;;16.07;100.00;101891.72;5279541;28;20159;-77
2022/08/28 03:20:15;;;;;;;19.15;4.15;;;;;;;16.08;100.00;101887.13;5275872;28;20121;-76
2022/08/28 03:25:35;;;;;;;13.45;4.10;;;;;;;16.03;100.00;101896.63;5270166;28;20024;-77
2022/08/28 03:28:05;;;;;;;17.02;4.25;;;;;;;16.00;100.00;101890.72;5284147;28;20481;-76
2022/08/28 03:30:36;;;;;;;18.70;4.55;;;;;;;15.98;100.00;101890.91;5242600;28;20031;-76
2022/08/28 03:33:07;;;;;;;16.83;4.47;;;;;;;15.95;100.00;101902.06;5255485;28;20028;-77
2022/08/28 03:35:38;;;;;;;16.45;5.00;;;;;;;15.92;100.00;101897.03;5275791;28;20028;-76
2022/08/28 03:38:10;;;;;;;13.80;3.58;;;;;;;15.90;100.00;101899.03;5281192;28;20047;-76
2022/08/28 03:40:43;;;;;;;16.92;5.05;;;;;;;15.90;100.00;101893.63;5281169;28;20059;-74
2022/08/28 03:43:17;;;;;;;21.27;4.75;;;;;;;15.89;100.00;101901.94;5280926;28;20024;-73
2022/08/28 03:46:01;;;;;;;15.23;3.85;;;;;;;15.86;100.00;101896.84;5280906;28;20028;-74
2022/08/28 03:48:35;;;;;;;19.30;4.15;;;;;;;15.83;100.00;101895.38;5279779;28;20213;-73
2022/08/28 03:51:09;;;;;;;11.02;3.85;;;;;;;15.78;100.00;101898.59;5275618;28;20027;-71
2022/08/28 03:53:41;;;;;;;18.80;4.03;;;;;;;15.75;100.00;101903.50;5288824;28;20094;-71
2022/08/28 03:56:16;;;;;;;13.13;3.70;;;;;;;15.74;100.00;101905.38;5267235;28;20024;-73
2022/08/28 03:58:48;;;;;;;11.77;3.97;;;;;;;15.73;100.00;101900.97;5280987;28;20065;-71
2022/08/28 04:01:19;;;;;;;13.95;4.18;;;;;;;15.73;100.00;101898.28;5259273;28;20023;-72
2022/08/28 04:03:50;;;;;;;15.30;4.10;;;;;;;15.72;100.00;101902.00;5270904;28;20016;-72
2022/08/28 04:06:21;;;;;;;13.02;3.80;;;;;;;15.72;100.00;101902.00;5266966;28;20711;-72
2022/08/28 04:08:52;;;;;;;9.10;3.20;;;;;;;15.72;100.00;101901.16;5271702;28;20026;-72
2022/08/28 04:11:22;;;;;;;21.55;5.18;;;;;;;15.71;100.00;101911.16;5275916;28;20015;-72
2022/08/28 04:13:53;;;;;;;11.40;3.67;;;;;;;15.69;100.00;101906.91;5266747;28;20033;-73
2022/08/28 04:16:24;;;;;;;16.17;4.00;;;;;;;15.67;100.00;101906.25;5266852;28;20488;-72
2022/08/28 04:18:54;;;;;;;12.50;3.85;;;;;;;15.67;100.00;101908.97;5274039;28;20027;-71
2022/08/28 04:21:25;;;;;;;18.27;3.67;;;;;;;15.65;100.00;101909.09;5274374;28;20027;-72
2022/08/28 04:23:56;;;;;;;9.98;4.03;;;;;;;15.63;100.00;101911.16;5279148;28;20024;-72
2022/08/28 04:26:28;;;;;;;13.80;3.65;;;;;;;15.61;100.00;101920.41;5282815;28;20393;-73
2022/08/28 04:28:58;;;;;;;13.80;4.97;;;;;;;15.59;100.00;101915.19;5269487;28;20370;-74
2022/08/28 04:31:30;;;;;;;20.35;4.00;;;;;;;15.57;100.00;101909.13;5286279;28;20028;-74
2022/08/28 04:34:02;;;;;;;21.10;4.35;;;;;;;15.56;100.00;101915.53;5278837;28;20058;-74
2022/08/28 04:36:33;;;;;;;13.35;3.22;;;;;;;15.53;100.00;101918.59;5255149;28;20015;-74
2022/08/28 04:39:07;;;;;;;13.88;4.05;;;;;;;15.51;100.00;101913.38;5272698;28;20028;-73
2022/08/28 04:41:37;;;;;;;12.75;3.58;;;;;;;15.49;100.00;101925.34;5279720;28;20386;-74
2022/08/28 04:44:08;;;;;;;16.35;3.83;;;;;;;15.45;100.00;101924.00;5266041;28;20032;-74
2022/08/28 04:46:39;;;;;;;20.20;3.60;;;;;;;15.42;100.00;101924.38;5266785;28;20561;-75
2022/08/28 04:49:10;;;;;;;11.05;3.22;;;;;;;15.38;100.00;101923.84;5266289;28;20028;-74
2022/08/28 04:51:41;;;;;;;15.20;3.67;;;;;;;15.34;100.00;101936.03;5266569;28;20431;-73
2022/08/28 04:54:12;;;;;;;13.52;3.38;;;;;;;15.29;100.00;101936.53;5265780;28;20020;-73
2022/08/28 04:56:42;;;;;;;19.55;4.53;;;;;;;15.22;100.00;101940.94;5266570;28;20039;-72
2022/08/28 04:59:13;;;;;;;19.63;4.18;;;;;;;15.16;100.00;101938.94;5271768;28;20365;-72
2022/08/28 05:01:43;;;;;;;16.90;3.83;;;;;;;15.10;100.00;101941.44;5287005;28;20034;-72
2022/08/28 05:04:14;;;;;;;12.90;3.88;;;;;;;15.03;100.00;101944.00;5279235;28;20027;-72
2022/08/28 05:06:45;;;;;;;10.15;3.17;;;;;;;14.98;100.00;101949.06;5267632;28;20024;-72
2022/08/28 05:09:17;;;;;;;10.23;3.72;;;;;;;14.94;100.00;101951.25;5287730;28;20019;-72
2022/08/28 05:11:48;;;;;;;13.55;3.40;;;;;;;14.87;100.00;101958.34;5273466;28;20081;-72
2022/08/28 05:14:20;;;;;;;14.85;3.20;;;;;;;14.83;100.00;101953.44;5286052;28;20020;-72
2022/08/28 05:16:51;;;;;;;10.23;3.20;;;;;;;14.80;100.00;101960.00;5269545;28;20089;-72
2022/08/28 05:19:23;;;;;;;14.10;3.58;;;;;;;14.77;100.00;101955.78;5266007;28;20107;-72
2022/08/28 05:21:54;;;;;;;15.38;3.90;;;;;;;14.73;100.00;101953.59;5265859;28;20028;-72
2022/08/28 05:24:24;;;;;;;11.23;3.00;;;;;;;14.72;100.00;101960.00;5265181;28;20024;-72
2022/08/28 05:26:56;;;;;;;17.52;3.83;;;;;;;14.67;100.00;101963.22;5271680;28;20030;-72
2022/08/28 05:29:26;;;;;;;11.40;3.28;;;;;;;14.65;100.00;101969.78;5286515;28;20065;-72
2022/08/28 05:31:57;;;;;;;14.55;3.95;;;;;;;14.61;100.00;101965.69;5286680;28;20481;-71
2022/08/28 05:34:27;;;;;;;11.27;3.30;;;;;;;14.57;100.00;101965.22;5276907;28;20031;-71
2022/08/28 05:36:58;;;;;;;13.90;4.32;;;;;;;14.55;100.00;101967.22;5286501;28;20084;-71
2022/08/28 05:39:28;;;;;;;14.40;3.97;;;;;;;14.55;100.00;101963.66;5283114;28;20086;-72
2022/08/28 05:41:59;;;;;;;14.13;3.72;;;;;;;14.60;100.00;101964.03;5256495;28;20136;-71
2022/08/28 05:44:31;;;;;;;12.52;3.40;;;;;;;14.64;100.00;101966.22;5278454;28;20070;-72
2022/08/28 05:47:01;;;;;;;12.02;3.15;;;;;;;14.68;100.00;101973.00;5263339;28;20445;-71
2022/08/28 05:49:32;;;;;;;9.95;3.70;;;;;;;14.74;100.00;101969.63;5276558;28;20103;-71
2022/08/28 05:52:02;;;;;;;14.50;4.13;;;;;;;14.91;100.00;101973.22;5258793;28;20026;-72
2022/08/28 05:54:33;;;;;;;13.65;4.13;;;;;;;15.33;100.00;101971.34;5283860;28;20035;-71
2022/08/28 05:57:04;;;;;;;11.88;3.95;;;;;;;15.93;100.00;101965.50;5282158;28;20470;-72
2022/08/28 05:59:34;;;;;;;16.98;3.20;;;;;;;16.55;100.00;101982.66;5285005;28;20110;-72
2022/08/28 06:02:05;;;;;;;20.70;4.50;;;;;;;17.16;100.00;101977.34;5268587;28;20023;-72
2022/08/28 06:04:38;;;;;;;13.13;3.45;;;;;;;17.69;100.00;101986.34;5246225;28;20228;-72
2022/08/28 06:07:11;;;;;;;16.00;3.40;;;;;;;18.19;100.00;101983.97;5264394;28;20016;-72
2022/08/28 06:09:41;;;;;;;20.23;4.13;;;;;;;18.60;100.00;101997.84;5276900;28;20019;-72
2022/08/28 06:12:12;;;;;;;10.75;3.50;;;;;;;18.96;100.00;101986.97;5265679;28;20026;-72
2022/08/28 06:14:42;;;;;;;11.48;3.10;;;;;;;19.40;100.00;101986.75;5263647;28;20522;-72
2022/08/28 06:17:12;;;;;;;11.82;3.60;;;;;;;19.74;100.00;101998.75;5285163;28;20039;-72
2022/08/28 06:19:43;;;;;;;16.42;3.38;;;;;;;20.05;100.00;102000.19;5284059;28;20103;-72
2022/08/28 06:22:14;;;;;;;14.73;3.42;;;;;;;20.35;100.00;102004.34;5273041;28;20055;-72
2022/08/28 06:24:44;;;;;;;12.70;2.80;;;;;;;20.54;100.00;102002.78;5282705;28;20183;-73
2022/08/28 06:27:15;;;;;;;12.55;3.85;;;;;;;20.87;100.00;102004.75;5274047;28;20020;-73
2022/08/28 06:29:45;;;;;;;12.70;3.20;;;;;;;21.10;100.00;102005.22;5285210;28;20049;-73
2022/08/28 06:32:16;;;;;;;10.65;2.65;;;;;;;21.44;100.00;102012.41;5273912;28;20381;-72
2022/08/28 06:34:46;;;;;;;10.70;3.13;;;;;;;21.63;100.00;102020.78;5267978;28;20114;-73
2022/08/28 06:37:17;;;;;;;7.00;3.03;;;;;;;21.92;100.00;102014.84;5264331;28;20024;-73
2022/08/28 06:39:47;;;;;;;12.50;3.00;;;;;;;22.14;100.00;102009.16;5277041;28;20383;-72
2022/08/28 06:42:19;;;;;;;14.65;3.00;;;;;;;22.20;100.00;102024.72;5264932;28;20032;-73
2022/08/28 06:44:49;;;;;;;10.98;3.38;;;;;;;22.26;100.00;102015.66;5276603;28;20035;-73
2022/08/28 06:47:20;;;;;;;13.18;2.88;;;;;;;22.30;100.00;102019.63;5277855;28;20024;-73
2022/08/28 06:49:51;;;;;;;13.85;3.20;;;;;;;22.35;100.00;102019.81;5264244;28;20407;-73
2022/08/28 06:52:21;;;;;;;13.05;2.70;;;;;;;22.20;100.00;102022.81;5266680;28;20059;-73
2022/08/28 06:54:52;;;;;;;17.63;3.13;;;;;;;22.19;100.00;102023.03;5284509;28;20098;-73
2022/08/28 06:57:24;;;;;;;9.90;3.00;;;;;;;22.43;100.00;102019.56;5266896;28;20070;-73
2022/08/28 06:59:56;;;;;;;14.30;2.92;;;;;;;22.61;100.00;102016.13;5285098;28;20111;-73
2022/08/28 07:02:27;;;;;;;10.60;2.55;;;;;;;22.87;100.00;102017.03;5248319;28;20170;-73
2022/08/28 07:04:57;;;;;;;9.45;2.88;;;;;;;22.82;100.00;102022.34;5249487;28;20436;-73
2022/08/28 07:07:28;;;;;;;15.25;2.85;;;;;;;23.20;100.00;102020.44;5267355;28;20026;-73
2022/08/28 07:09:58;;;;;;;9.05;2.97;;;;;;;23.37;100.00;102025.38;5268263;28;20394;-73
2022/08/28 07:12:29;;;;;;;16.73;3.17;;;;;;;23.51;100.00;102032.41;5281379;28;20039;-73
2022/08/28 07:15:00;;;;;;;9.90;2.38;;;;;;;23.69;100.00;102037.13;5281853;28;20082;-73
2022/08/28 07:17:31;;;;;;;10.85;2.72;;;;;;;23.83;98.81;102040.56;5288951;28;20108;-73
2022/08/28 07:20:04;;;;;;;12.25;3.22;;;;;;;23.80;99.62;102038.28;5271724;28;20062;-73
2022/08/28 07:22:34;;;;;;;8.45;2.97;;;;;;;23.76;98.22;102040.66;5267612;28;20401;-73
2022/08/28 07:25:08;;;;;;;16.85;3.08;;;;;;;23.59;95.70;102045.81;5285258;28;20032;-73
2022/08/28 07:27:38;;;;;;;10.18;2.13;;;;;;;23.38;98.33;102036.09;5288252;28;20126;-73
2022/08/28 07:30:11;;;;;;;14.45;3.50;;;;;;;23.38;97.83;102037.97;5280904;28;20095;-73
2022/08/28 07:32:42;;;;;;;9.30;3.13;;;;;;;23.53;96.78;102030.28;5267578;28;20059;-73
2022/08/28 07:35:12;;;;;;;13.00;2.88;;;;;;;23.64;96.44;102035.06;5280027;28;20115;-73
2022/08/28 07:37:44;;;;;;;11.18;3.13;;;;;;;23.72;96.68;102039.41;5271914;28;20420;-73
2022/08/28 07:40:15;;;;;;;9.77;3.13;;;;;;;23.41;97.53;102046.59;5266696;28;20032;-73
2022/08/28 07:45:35;;;;;;;9.90;2.63;;;;;;;24.18;94.62;102043.59;5279825;28;20094;-73
2022/08/28 07:48:07;;;;;;;12.07;3.28;;;;;;;24.32;93.68;102042.38;5280597;28;20111;-73
2022/08/28 07:50:37;;;;;;;10.95;2.80;;;;;;;24.53;93.15;102041.09;5266431;28;20031;-74
2022/08/28 07:53:08;;;;;;;10.93;3.33;;;;;;;24.43;90.17;102049.88;5276395;28;20016;-73
2022/08/28 07:55:38;;;;;;;9.10;2.47;;;;;;;24.54;91.35;102048.25;5271791;28;20040;-73
2022/08/28 07:58:08;;;;;;;11.35;2.55;;;;;;;24.45;90.82;102049.63;5266822;28;20031;-73
2022/08/28 08:00:40;;;;;;;9.82;2.70;;;;;;;24.67;91.44;102044.50;5270868;28;20414;-73
2022/08/28 08:03:10;;;;;;;16.05;3.45;;;;;;;24.72;89.38;102048.22;5287433;28;20440;-73
2022/08/28 08:05:52;;;;;;;9.38;3.42;;;;;;;24.62;89.86;102036.97;5267640;28;20023;-73
2022/08/28 08:08:24;;;;;;;14.77;2.95;;;;;;;24.43;92.18;102049.88;5280285;28;20051;-73
2022/08/28 08:10:57;;;;;;;18.10;3.25;;;;;;;24.36;91.30;102054.59;5269849;28;20030;-73
2022/08/28 08:13:28;;;;;;;8.57;2.92;;;;;;;24.44;91.14;102056.19;5287012;28;20526;-73
2022/08/28 08:16:16;;;;;;;7.93;2.63;;;;;;;24.78;91.42;102051.94;5277425;28;20063;-73
2022/08/28 08:18:48;;;;;;;8.88;2.30;;;;;;;25.02;86.67;102059.22;5266015;28;20470;-73
2022/08/28 08:21:21;;;;;;;9.90;2.83;;;;;;;25.45;85.57;102055.44;5266167;28;20035;-73
2022/08/28 08:23:51;;;;;;;10.93;2.67;;;;;;;25.61;84.18;102061.31;5273074;28;20031;-72
2022/08/28 08:26:24;;;;;;;13.32;2.78;;;;;;;25.66;82.09;102065.00;5285508;28;20027;-73
2022/08/28 08:28:55;;;;;;;8.90;2.70;;;;;;;25.56;81.47;102057.34;5280506;28;20469;-73
2022/08/28 08:31:31;;;;;;;10.20;3.00;;;;;;;25.44;80.12;102061.13;5286991;28;20031;-73
2022/08/28 08:34:04;;;;;;;14.70;2.58;;;;;;;25.60;81.52;102062.34;5277469;28;20027;-73
2022/08/28 08:36:36;;;;;;;14.82;3.20;;;;;;;25.44;79.08;102067.47;5265830;28;20047;-73
2022/08/28 08:39:07;;;;;;;9.25;3.10;;;;;;;25.05;80.16;102055.16;5267316;28;20461;-73
2022/08/28 08:41:46;;;;;;;6.90;2.33;;;;;;;25.34;82.64;102060.88;5286915;28;20119;-73
2022/08/28 08:44:46;;;;;;;9.13;2.42;;;;;;;25.61;81.30;102062.13;5268127;28;20036;-73
2022/08/28 08:47:21;;;;;;;7.55;2.50;;;;;;;25.76;80.23;102053.47;5267611;28;20100;-73
2022/08/28 08:49:54;;;;;;;7.95;2.30;;;;;;;25.82;76.11;102063.50;5276783;28;20016;-73
2022/08/28 08:52:55;;;;;;;11.35;2.72;;;;;;;25.69;75.61;102058.19;5283935;28;20023;-73
2022/08/28 08:55:44;;;;;;;14.38;2.65;;;;;;;24.93;78.11;102066.09;5285737;28;20059;-73
2022/08/28 08:58:24;;;;;;;9.57;2.63;;;;;;;24.86;76.83;102056.28;5268282;28;20054;-73
2022/08/28 09:01:19;;;;;;;10.13;2.42;;;;;;;25.16;77.57;102048.09;5286580;28;20554;-73
2022/08/28 09:04:23;;;;;;;9.95;2.60;;;;;;;25.55;75.37;102050.19;5282088;28;20020;-73
2022/08/28 09:07:01;;;;;;;9.30;2.60;;;;;;;25.25;73.63;102057.63;5281924;28;20427;-73
2022/08/28 09:09:36;;;;;;;10.45;2.55;;;;;;;25.08;76.57;102056.63;5274627;28;20070;-73
2022/08/28 09:12:11;;;;;;;6.60;2.33;;;;;;;24.88;75.61;102067.88;5278889;28;20077;-73
2022/08/28 09:15:18;;;;;;;9.13;2.40;;;;;;;25.08;76.82;102059.38;5264740;28;20032;-73
2022/08/28 09:17:54;;;;;;;7.57;2.13;;;;;;;24.99;74.73;102061.56;5277806;28;20053;-73
2022/08/28 09:20:27;;;;;;;12.32;2.53;;;;;;;24.70;73.55;102061.34;5272205;28;20682;-73
2022/08/28 09:22:58;;;;;;;9.82;2.28;;;;;;;24.94;74.92;102061.44;5281862;28;20039;-72
2022/08/28 09:25:48;;;;;;;10.23;3.00;;;;;;;25.21;74.82;102067.44;5283108;28;20032;-73
2022/08/28 09:28:23;;;;;;;11.07;2.55;;;;;;;25.58;74.80;102070.84;5273454;28;20031;-73
2022/08/28 09:31:12;;;;;;;11.15;2.40;;;;;;;26.02;75.54;102057.63;5270505;28;20405;-73
2022/08/28 09:33:46;;;;;;;10.18;2.92;;;;;;;26.35;75.03;102062.47;5273062;28;20059;-73
2022/08/28 09:36:36;;;;;;;7.28;2.70;;;;;;;26.46;70.68;102071.84;5269208;28;20026;-74
2022/08/28 09:39:10;;;;;;;7.30;2.38;;;;;;;26.19;72.74;102068.72;5283474;28;20028;-73
2022/08/28 09:45:20;;;;;;;;;;;;;;;25.92;71.40;102060.16;5272180;28;20497;-73
2022/08/28 09:47:54;;;;;;;7.15;2.58;;;;;;;25.53;73.18;102063.31;5264980;28;19918;-73
2022/08/28 09:50:56;;;;;;;4.57;2.05;;;;;;;25.75;72.18;102060.00;5282623;28;20042;-73
2022/08/28 09:53:28;;;;;;;12.65;2.53;;;;;;;25.53;70.84;102060.56;5282033;28;20062;-73
2022/08/28 09:56:17;;;;;;;13.55;2.80;;;;;;;25.24;71.62;102062.28;5282950;28;20477;-73
2022/08/28 09:58:53;;;;;;;5.93;2.30;;;;;;;25.29;71.05;102064.34;5261354;28;20036;-73
2022/08/28 10:02:01;;;;;;;9.93;2.05;;;;;;;25.23;71.62;102062.53;5282757;28;20039;-73
2022/08/28 10:05:05;;;;;;;8.20;2.20;;;;;;;25.22;71.98;102052.63;5279005;28;20213;-74
2022/08/28 10:07:42;;;;;;;11.50;2.45;;;;;;;25.31;72.35;102052.06;5280261;28;20031;-74
2022/08/28 10:10:50;;;;;;;6.63;2.10;;;;;;;25.58;73.30;102049.69;5278671;28;20024;-73
2022/08/28 10:13:27;;;;;;;14.07;2.20;;;;;;;25.46;72.13;102054.34;5277920;28;20028;-73
2022/08/28 10:16:23;;;;;;;9.32;2.42;;;;;;;25.52;72.17;102058.06;5281740;28;20027;-74
2022/08/28 10:19:03;;;;;;;;;;;;;;;25.35;72.07;102052.41;5281070;28;20039;-73
2022/08/28 10:21:55;;;;;;;5.28;2.17;;;;;;;24.96;71.34;102065.66;5282095;28;19939;-73
2022/08/28 10:24:53;;;;;;;8.27;1.98;;;;;;;24.75;72.88;102049.66;5275582;28;20220;-73
2022/08/28 10:27:47;;;;;;;6.22;2.20;;;;;;;24.70;74.67;102055.88;5255244;28;20027;-73
2022/08/28 10:30:21;;;;;;;10.70;2.10;;;;;;;24.86;75.12;102056.28;5281111;28;20024;-73
2022/08/28 10:33:20;;;;;;;12.10;1.90;;;;;;;25.11;75.32;102050.69;5278955;28;20024;-73
2022/08/28 10:36:10;;;;;;;5.30;1.90;;;;;;;25.41;74.75;102050.66;5279125;28;20434;-74
2022/08/28 10:38:46;;;;;;;10.43;2.08;;;;;;;25.66;72.78;102053.19;5284785;28;20046;-73
2022/08/28 10:41:37;;;;;;;6.85;1.80;;;;;;;25.69;70.21;102047.19;5267552;28;20020;-73
2022/08/28 10:44:10;;;;;;;9.98;1.92;;;;;;;25.69;69.53;102045.28;5279405;28;20031;-73
2022/08/28 10:46:48;;;;;;;12.50;2.25;;;;;;;25.53;70.37;102046.00;5284726;28;20019;-73
2022/08/28 10:49:25;;;;;;;9.18;2.38;;;;;;;25.19;72.10;102048.44;5285985;28;20051;-74
2022/08/28 10:52:30;;;;;;;14.50;2.40;;;;;;;25.23;72.01;102052.38;5280464;28;20027;-73
2022/08/28 10:55:06;;;;;;;8.70;2.00;;;;;;;25.35;71.76;102046.06;5278663;28;20031;-73
2022/08/28 10:57:51;;;;;;;6.40;2.00;;;;;;;25.62;72.77;102051.97;5282787;28;20019;-74
2022/08/28 11:00:25;;;;;;;7.50;1.65;;;;;;;25.74;70.41;102050.06;5284616;28;20108;-73
2022/08/28 11:03:00;;;;;;;7.80;1.80;;;;;;;25.73;68.10;102056.66;5267688;28;20057;-73
2022/08/28 11:05:38;;;;;;;7.38;1.80;;;;;;;25.58;69.00;102049.69;5281022;28;20514;-73
2022/08/28 11:08:22;;;;;;;9.70;2.38;;;;;;;25.83;69.89;102057.75;5283445;28;20027;-74
2022/08/28 11:10:55;;;;;;;6.65;2.03;;;;;;;26.01;70.59;102055.97;5284593;28;20750;-74
2022/08/28 11:13:42;;;;;;;9.82;2.35;;;;;;;25.77;67.97;102055.97;5282426;28;20610;-74
2022/08/28 11:16:27;;;;;;;7.07;1.77;;;;;;;25.67;67.80;102066.69;5273309;28;20127;-74
2022/08/28 11:19:13;;;;;;;3.40;1.40;;;;;;;25.62;69.78;102055.56;5265106;28;20028;-73
2022/08/28 11:21:51;;;;;;;5.88;1.73;;;;;;;25.66;67.04;102061.44;5269727;28;20377;-73
2022/08/28 11:24:43;;;;;;;6.40;1.80;;;;;;;25.43;66.80;102062.22;5272901;28;20016;-73
2022/08/28 11:27:21;;;;;;;10.75;2.22;;;;;;;25.40;68.36;102049.78;5265081;28;20028;-73
2022/08/28 11:30:11;;;;;;;8.07;1.90;;;;;;;25.49;67.94;102047.53;5285506;28;20102;-73
2022/08/28 11:33:02;;;;;;;6.35;1.98;;;;;;;25.36;67.20;102051.34;5283957;28;20396;-73
2022/08/28 11:35:50;;;;;;;8.30;1.95;;;;;;;25.46;68.27;102059.00;5267763;28;20016;-73
2022/08/28 11:38:39;;;;;;;9.27;1.70;;;;;;;25.49;66.39;102053.88;5271896;28;20233;-73
2022/08/28 11:41:13;;;;;;;3.47;1.33;;;;;;;25.44;65.38;102056.47;5285692;28;20099;-74
2022/08/28 11:43:45;;;;;;;8.90;1.75;;;;;;;25.02;66.32;102050.16;5285213;28;20396;-74
2022/08/28 11:46:30;;;;;;;5.35;1.67;;;;;;;25.01;65.84;102046.56;5284792;28;20212;-73
2022/08/28 11:49:04;;;;;;;4.82;1.98;;;;;;;25.17;69.29;102047.00;5284277;28;20058;-73
2022/08/28 11:51:57;;;;;;;10.27;1.65;;;;;;;25.54;67.27;102051.25;5278965;28;20066;-73
2022/08/28 11:54:37;;;;;;;10.07;1.63;;;;;;;25.69;67.11;102048.03;5283496;28;20027;-74
2022/08/28 11:57:12;;;;;;;5.10;1.88;;;;;;;25.93;65.15;102053.56;5284858;28;20032;-74
2022/08/28 11:59:49;;;;;;;7.75;1.63;;;;;;;25.93;62.65;102053.56;5284601;28;20035;-74
2022/08/28 12:02:38;;;;;;;7.57;1.45;;;;;;;25.82;64.93;102044.25;5284777;28;20035;-74